createdAt,value
2019-05-12T00:02:19.719Z,12.70
2019-05-12T00:04:49.513Z,12.80
2019-05-12T00:07:19.187Z,12.70
2019-05-12T00:09:48.819Z,12.90
2019-05-12T00:12:18.568Z,12.80
2019-05-12T00:14:48.618Z,12.80
2019-05-12T00:17:18.896Z,12.90
2019-05-12T00:19:48.627Z,12.80
2019-05-12T00:22:19.851Z,12.90
2019-05-12T00:24:49.452Z,13.00
2019-05-12T00:27:20.727Z,12.80
2019-05-12T00:29:50.355Z,12.80
2019-05-12T00:32:20.004Z,12.80
2019-05-12T00:34:49.621Z,12.70
2019-05-12T00:37:19.222Z,12.60
2019-05-12T00:39:48.883Z,12.60
2019-05-12T00:42:18.501Z,12.70
2019-05-12T00:44:48.231Z,12.50
2019-05-12T00:47:18.782Z,12.50
2019-05-12T00:49:50.291Z,12.60
2019-05-12T00:52:20.045Z,12.60
2019-05-12T00:54:49.727Z,12.60
2019-05-12T00:57:19.405Z,12.70
2019-05-12T00:59:49.109Z,12.60
2019-05-12T01:02:18.707Z,12.60
2019-05-12T01:04:48.807Z,12.40
2019-05-12T01:07:18.607Z,12.50
2019-05-12T01:09:49.135Z,12.50
2019-05-12T01:12:18.848Z,12.40
2019-05-12T01:14:48.606Z,12.40
2019-05-12T01:17:18.218Z,12.40
2019-05-12T01:19:48.579Z,12.40
2019-05-12T01:22:18.749Z,12.50
2019-05-12T01:24:48.544Z,12.50
2019-05-12T01:27:18.230Z,12.30
2019-05-12T01:29:48.103Z,12.40
2019-05-12T01:32:31.639Z,12.50
2019-05-12T01:35:01.300Z,12.50
2019-05-12T01:37:31.048Z,12.40
2019-05-12T01:40:00.705Z,12.30
2019-05-12T01:42:30.300Z,12.30
2019-05-12T01:44:59.954Z,12.20
2019-05-12T01:47:29.567Z,12.10
2019-05-12T01:49:59.255Z,12.20
2019-05-12T01:52:28.949Z,12.40
2019-05-12T01:54:59.082Z,12.40
2019-05-12T01:57:28.979Z,12.30
2019-05-12T01:59:58.727Z,12.20
2019-05-12T02:02:28.691Z,12.00
2019-05-12T02:05:08.494Z,12.00
2019-05-12T02:08:02.805Z,12.20
2019-05-12T02:10:32.488Z,12.20
2019-05-12T02:13:02.192Z,12.40
2019-05-12T02:15:31.856Z,12.40
2019-05-12T02:18:01.437Z,12.30
2019-05-12T02:20:31.067Z,12.30
2019-05-12T02:23:00.676Z,12.20
2019-05-12T02:25:30.356Z,11.90
2019-05-12T02:27:59.967Z,12.00
2019-05-12T02:30:30.758Z,12.00
2019-05-12T02:33:00.612Z,12.10
2019-05-12T02:35:30.256Z,12.20
2019-05-12T02:37:59.873Z,12.00
2019-05-12T02:40:29.520Z,12.10
2019-05-12T02:42:59.513Z,12.20
2019-05-12T02:45:29.192Z,12.10
2019-05-12T02:47:58.817Z,12.00
2019-05-12T02:50:35.256Z,11.90
2019-05-12T02:53:05.624Z,12.00
2019-05-12T02:55:35.891Z,12.00
2019-05-12T02:58:06.591Z,12.00
2019-05-12T03:00:37.241Z,11.90
2019-05-12T03:03:09.379Z,11.80
2019-05-12T03:05:43.645Z,11.80
2019-05-12T03:08:15.340Z,11.80
2019-05-12T03:10:48.440Z,11.90
2019-05-12T03:13:18.077Z,11.80
2019-05-12T03:15:47.724Z,11.80
2019-05-12T03:18:17.364Z,11.60
2019-05-12T03:20:46.995Z,11.60
2019-05-12T03:23:19.128Z,11.60
2019-05-12T03:25:47.953Z,11.60
2019-05-12T03:28:17.554Z,11.60
2019-05-12T03:30:48.903Z,11.50
2019-05-12T03:33:20.015Z,11.40
2019-05-12T03:35:52.845Z,11.40
2019-05-12T03:38:20.999Z,11.40
2019-05-12T03:40:50.641Z,11.40
2019-05-12T03:43:20.348Z,11.50
2019-05-12T03:45:49.981Z,11.60
2019-05-12T03:48:19.602Z,11.50
2019-05-12T03:50:49.243Z,11.30
2019-05-12T03:53:18.905Z,11.20
2019-05-12T03:55:48.548Z,11.20
2019-05-12T03:58:18.245Z,11.40
2019-05-12T04:00:47.945Z,11.30
2019-05-12T04:03:17.533Z,11.30
2019-05-12T04:05:47.207Z,11.10
2019-05-12T04:08:16.887Z,11.10
2019-05-12T04:10:46.602Z,10.90
2019-05-12T04:13:16.302Z,10.80
2019-05-12T04:15:46.149Z,10.80
2019-05-12T04:18:16.559Z,10.70
2019-05-12T04:23:15.817Z,10.50
2019-05-12T04:25:52.072Z,10.40
2019-05-12T04:28:17.198Z,10.40
2019-05-12T04:30:46.954Z,10.30
2019-05-12T04:33:16.573Z,10.20
2019-05-12T04:35:46.239Z,10.20
2019-05-12T04:38:15.836Z,10.00
2019-05-12T04:40:45.695Z,9.90
2019-05-12T04:43:15.444Z,9.70
2019-05-12T05:05:44.630Z,8.60
2019-05-12T05:08:19.287Z,8.50
2019-05-12T05:20:43.933Z,8.50
2019-05-12T13:08:07.684Z,9.30
2019-05-12T13:10:40.667Z,9.00
2019-05-12T13:13:08.619Z,9.10
2019-05-12T13:15:38.216Z,9.00
2019-05-12T13:23:42.573Z,8.80
2019-05-12T13:26:13.784Z,9.10
2019-05-12T13:28:50.576Z,9.00
2019-05-12T13:31:16.194Z,9.10
2019-05-12T13:33:49.458Z,9.20
2019-05-12T13:36:24.173Z,9.40
2019-05-12T13:38:53.583Z,9.30
2019-05-12T13:41:23.220Z,9.30
2019-05-12T13:43:55.889Z,9.30
2019-05-12T13:46:24.121Z,9.20
2019-05-12T13:48:57.736Z,9.20
2019-05-12T13:51:25.071Z,9.10
2019-05-12T13:53:54.726Z,8.90
2019-05-12T13:56:29.750Z,8.90
2019-05-12T13:58:55.660Z,8.80
2019-05-12T14:01:25.275Z,8.80
2019-05-12T14:03:54.940Z,8.80
2019-05-12T14:06:31.833Z,9.00
2019-05-12T14:08:55.882Z,8.90
2019-05-12T14:11:25.492Z,9.00
2019-05-12T14:13:55.167Z,8.90
2019-05-12T14:16:24.795Z,9.10
2019-05-12T14:18:57.010Z,9.00
2019-05-12T14:21:25.684Z,9.20
2019-05-12T14:23:56.714Z,9.30
2019-05-12T14:26:26.367Z,9.30
2019-05-12T14:28:56.026Z,9.40
2019-05-12T14:31:30.258Z,9.60
2019-05-12T14:33:57.076Z,9.60
2019-05-12T14:36:26.995Z,9.50
2019-05-12T14:39:00.261Z,9.50
2019-05-12T14:41:28.052Z,9.80
2019-05-12T14:44:01.530Z,10.00
2019-05-12T14:46:28.972Z,10.40
2019-05-12T14:48:58.679Z,10.20
2019-05-12T14:51:28.266Z,10.20
2019-05-12T14:53:58.045Z,10.20
2019-05-12T14:56:27.694Z,9.90
2019-05-12T14:59:00.758Z,9.80
2019-05-12T15:01:44.128Z,9.80
2019-05-12T15:04:05.060Z,9.90
2019-05-12T15:06:34.307Z,9.80
2019-05-12T15:09:05.907Z,10.00
2019-05-12T15:11:36.896Z,10.20
2019-05-12T15:14:06.584Z,10.10
2019-05-12T15:16:40.291Z,10.00
2019-05-12T15:19:09.810Z,9.90
2019-05-12T15:21:39.704Z,9.80
2019-05-12T15:24:15.247Z,9.70
2019-05-12T15:26:43.617Z,9.60
2019-05-12T15:29:19.894Z,9.70
2019-05-12T15:31:53.396Z,9.90
2019-05-12T15:34:16.111Z,10.10
2019-05-12T15:36:52.303Z,10.10
2019-05-12T15:39:17.308Z,10.30
2019-05-12T15:41:51.138Z,10.70
2019-05-12T15:44:23.203Z,10.40
2019-05-12T15:46:49.968Z,10.60
2019-05-12T15:49:20.887Z,10.80
2019-05-12T15:51:55.273Z,10.70
2019-05-12T15:54:22.384Z,10.80
2019-05-12T15:56:53.271Z,10.60
2019-05-12T15:59:24.528Z,10.70
2019-05-12T16:02:09.569Z,11.00
2019-05-12T16:04:34.750Z,11.10
2019-05-12T16:07:39.442Z,11.10
2019-05-12T16:09:57.778Z,10.90
2019-05-12T16:12:27.887Z,10.70
2019-05-12T16:14:57.735Z,10.80
2019-05-12T16:17:27.683Z,10.70
2019-05-12T16:19:59.374Z,10.80
2019-05-12T16:22:30.648Z,10.90
2019-05-12T16:25:05.723Z,10.70
2019-05-12T16:27:37.241Z,10.70
2019-05-12T16:30:08.005Z,10.80
2019-05-12T16:32:43.066Z,10.70
2019-05-12T16:35:09.112Z,10.90
2019-05-12T16:37:39.829Z,10.70
2019-05-12T16:40:09.873Z,10.80
2019-05-12T16:42:48.345Z,10.70
2019-05-12T16:45:25.872Z,10.60
2019-05-12T16:47:59.207Z,10.50
2019-05-12T16:50:29.674Z,10.50
2019-05-12T16:53:00.057Z,10.40
2019-05-12T16:55:29.829Z,10.40
2019-05-12T16:58:00.951Z,10.40
2019-05-12T17:00:31.226Z,10.50
2019-05-12T17:03:03.798Z,10.20
2019-05-12T17:05:33.726Z,10.20
2019-05-12T17:08:04.316Z,10.20
2019-05-12T17:10:49.711Z,10.20
2019-05-12T17:13:16.100Z,10.10
2019-05-12T17:16:14.371Z,10.20
2019-05-12T17:18:44.397Z,10.50
2019-05-12T17:21:14.520Z,10.60
2019-05-12T17:23:46.585Z,10.40
2019-05-12T17:26:16.289Z,10.30
2019-05-12T17:28:47.317Z,10.50
2019-05-12T17:31:16.985Z,10.20
2019-05-12T17:33:48.168Z,10.00
2019-05-12T17:36:18.193Z,10.00
2019-05-12T17:38:51.142Z,9.90
2019-05-12T17:41:19.284Z,9.90
2019-05-12T17:43:56.651Z,9.70
2019-05-12T17:46:20.544Z,9.80
2019-05-12T17:48:50.492Z,9.80
2019-05-12T17:51:20.488Z,9.80
2019-05-12T17:53:53.866Z,9.90
2019-05-12T17:56:25.093Z,9.80
2019-05-12T17:58:54.513Z,9.80
2019-05-12T18:01:31.325Z,9.70
2019-05-12T18:03:55.611Z,9.60
2019-05-12T18:06:29.140Z,9.50
2019-05-12T18:08:56.871Z,9.60
2019-05-12T18:11:26.521Z,9.50
2019-05-12T18:14:02.768Z,9.50
2019-05-12T18:16:27.476Z,9.50
2019-05-12T18:18:57.188Z,9.60
2019-05-12T18:21:30.969Z,9.60
2019-05-12T18:24:06.767Z,9.60
2019-05-12T18:26:33.958Z,9.40
2019-05-12T18:29:04.306Z,9.40
2019-05-12T18:31:34.406Z,9.60
2019-05-12T18:34:05.003Z,9.60
2019-05-12T18:36:34.839Z,9.60
2019-05-12T18:39:27.881Z,9.60
2019-05-12T18:42:24.415Z,9.60
2019-05-12T18:44:54.577Z,9.60
2019-05-12T18:47:32.063Z,9.40
2019-05-12T18:50:00.454Z,9.70
2019-05-12T18:52:45.606Z,9.80
2019-05-12T18:55:16.816Z,9.90
2019-05-12T18:57:49.884Z,10.10
2019-05-12T19:00:20.378Z,10.20
2019-05-12T19:02:51.155Z,10.30
2019-05-12T19:05:24.098Z,10.40
2019-05-12T19:07:54.254Z,10.20
2019-05-12T19:10:24.250Z,10.20
2019-05-12T19:13:01.311Z,10.10
2019-05-12T19:15:28.868Z,10.00
2019-05-12T19:18:03.563Z,9.90
2019-05-12T19:20:36.178Z,9.90
2019-05-12T19:23:06.574Z,10.10
2019-05-12T19:25:40.374Z,9.80
2019-05-12T19:28:10.524Z,9.90
2019-05-12T19:30:38.846Z,10.00
2019-05-12T19:33:10.717Z,10.20
2019-05-12T19:35:39.984Z,10.10
2019-05-12T19:38:10.349Z,9.90
2019-05-12T19:40:40.085Z,9.90
2019-05-12T19:43:09.791Z,10.00
2019-05-12T19:45:39.502Z,10.00
2019-05-12T19:48:23.313Z,10.00
2019-05-12T19:50:44.397Z,9.90
2019-05-12T19:53:13.922Z,9.80
2019-05-12T19:55:44.332Z,9.80
2019-05-12T19:58:14.364Z,9.80
2019-05-12T20:00:47.152Z,10.10
2019-05-12T20:03:16.883Z,10.00
2019-05-12T20:05:46.681Z,10.10
2019-05-12T20:08:16.419Z,10.00
2019-05-12T20:10:49.418Z,10.00
2019-05-12T20:13:17.428Z,10.30
2019-05-12T20:15:47.167Z,10.20
2019-05-12T20:18:16.916Z,10.10
2019-05-12T20:20:46.573Z,9.90
2019-05-12T20:23:16.280Z,9.90
2019-05-12T20:25:48.856Z,9.80
2019-05-12T20:28:18.618Z,9.90
2019-05-12T20:30:52.315Z,9.90
2019-05-12T20:33:24.631Z,9.70
2019-05-12T20:35:54.812Z,9.60
2019-05-12T20:38:33.786Z,9.50
2019-05-12T20:40:55.927Z,9.70
2019-05-12T20:43:32.219Z,9.60
2019-05-12T20:45:57.089Z,9.60
2019-05-12T20:48:31.073Z,9.80
2019-05-12T20:50:58.064Z,9.80
2019-05-12T20:53:31.913Z,9.60
2019-05-12T20:56:03.715Z,9.50
2019-05-12T20:58:37.577Z,9.50
2019-05-12T21:01:05.343Z,9.50
2019-05-12T21:03:39.748Z,9.60
2019-05-12T21:06:06.853Z,9.60
2019-05-12T21:08:38.051Z,9.60
2019-05-12T21:11:07.759Z,9.80
2019-05-12T21:13:37.418Z,9.90
2019-05-12T21:16:16.274Z,10.00
2019-05-12T21:18:47.806Z,10.10
2019-05-12T21:21:14.279Z,9.90
2019-05-12T21:23:47.928Z,9.80
2019-05-12T21:26:14.033Z,9.90
2019-05-12T21:28:48.052Z,9.90
2019-05-12T21:31:14.955Z,9.60
2019-05-12T21:33:44.637Z,9.60
2019-05-12T21:36:23.609Z,9.70
2019-05-12T21:38:45.616Z,9.70
2019-05-12T21:41:15.693Z,9.60
2019-05-12T21:43:45.467Z,9.80
2019-05-12T21:46:15.639Z,9.80
2019-05-12T21:48:45.936Z,9.60
2019-05-12T21:51:20.031Z,9.70
2019-05-12T21:53:50.645Z,9.60
2019-05-12T21:56:18.452Z,9.70
2019-05-12T21:58:53.733Z,9.60
2019-05-12T22:01:19.631Z,9.60
2019-05-12T22:03:58.092Z,9.60
2019-05-12T22:06:24.854Z,9.60
2019-05-12T22:09:01.111Z,9.60
2019-05-12T22:11:28.007Z,9.60
2019-05-12T22:14:00.208Z,9.60
2019-05-12T22:16:39.689Z,9.50
2019-05-12T22:19:03.761Z,9.60
2019-05-12T22:21:35.871Z,9.80
2019-05-12T22:24:06.298Z,9.50
2019-05-12T22:26:39.574Z,9.30
2019-05-12T22:29:07.369Z,9.30
2019-05-12T22:31:38.680Z,9.20
2019-05-12T22:34:09.447Z,9.20
2019-05-12T22:36:39.078Z,9.40
2019-05-12T22:39:08.767Z,9.40
2019-05-12T22:41:41.343Z,9.20
2019-05-12T22:44:09.849Z,9.20
2019-05-12T22:46:39.491Z,9.10
2019-05-12T22:49:10.558Z,9.10
2019-05-12T22:51:40.498Z,9.10
2019-05-12T22:54:10.716Z,9.00
2019-05-12T22:56:40.554Z,9.00
2019-05-12T22:59:10.139Z,9.10
2019-05-12T23:01:41.621Z,9.10
2019-05-12T23:04:11.088Z,9.10
2019-05-12T23:06:43.658Z,9.10
2019-05-12T23:09:12.078Z,9.00
2019-05-12T23:11:41.763Z,8.70
2019-05-12T23:14:12.649Z,8.80
2019-05-12T23:16:44.267Z,8.90
2019-05-12T23:19:15.074Z,8.80
2019-05-12T23:21:49.200Z,8.80
2019-05-12T23:24:16.239Z,8.70
2019-05-12T23:26:47.987Z,8.70
2019-05-12T23:29:20.451Z,8.60
2019-05-12T23:31:48.498Z,8.70
2019-05-12T23:34:18.095Z,8.60
2019-05-12T23:36:50.354Z,8.60
2019-05-12T23:39:19.016Z,8.50
2019-05-12T23:41:48.696Z,8.50
2019-05-12T23:44:18.386Z,8.70
2019-05-12T23:46:48.056Z,8.90
2019-05-12T23:49:36.816Z,9.00
2019-05-12T23:52:06.595Z,8.90
2019-05-12T23:54:36.443Z,8.80
2019-05-12T23:57:06.067Z,8.90
2019-05-12T23:59:35.754Z,9.10
